KNYG

Quantico MCAF / Turner Field Airport

Quantico, Virginia, USA
METAR KNYG 181956Z AUTO 00000KT 9SM OVC009 03/02 A3011 RMK AO2 SLP198 T00330022
Observed Flight Rules
Jan-18 @ 19:56 UTC (44 minutes ago) Instrument Flight Rules
Visibility Clouds
9 miles
  • Overcast at 900' AGL
Temperatures Readings
Current 3°C / 37°F
Dewpoint 2°C / 36°F
Humidity 93%
Altimeter 30.11" Hg
Pressure 1019.8 hPa
Elevation 4
METAR KNYG 181956Z AUTO 00000KT 9SM OVC009 03/02 A3011 RMK AO2 SLP198 T00330022
Observed Flight Rules
Jan-18 @ 19:56 UTC
(44 minutes ago)
IFR
Clouds
  • Overcast at 900' AGL
Temperature Dewpoint
3°C / 37°F 2°C / 36°F
Humidity Altimeter Pressure
93% 30.11" Hg 1019.8 hPa